sensor_id;sensor_type;location;lat;lon;timestamp;pressure;altitude;pressure_sealevel;temperature;humidity
13420;BME280;6781;58.440;15.470;2023-07-28T00:01:33;100225.06;;;13.45;100.00
13420;BME280;6781;58.440;15.470;2023-07-28T00:04:00;100275.63;;;13.70;100.00
13420;BME280;6781;58.440;15.470;2023-07-28T00:06:31;100170.59;;;12.88;100.00
13420;BME280;6781;58.440;15.470;2023-07-28T00:08:58;100299.00;;;13.61;100.00
13420;BME280;6781;58.440;15.470;2023-07-28T00:11:25;100299.38;;;13.49;100.00
13420;BME280;6781;58.440;15.470;2023-07-28T00:13:54;100293.25;;;13.40;100.00
13420;BME280;6781;58.440;15.470;2023-07-28T00:16:21;100363.22;;;13.80;100.00
13420;BME280;6781;58.440;15.470;2023-07-28T00:18:48;100263.69;;;13.04;100.00
13420;BME280;6781;58.440;15.470;2023-07-28T00:21:15;100286.81;;;13.17;100.00
13420;BME280;6781;58.440;15.470;2023-07-28T00:23:42;100395.09;;;14.10;100.00
13420;BME280;6781;58.440;15.470;2023-07-28T00:26:09;100225.63;;;12.93;100.00
13420;BME280;6781;58.440;15.470;2023-07-28T00:28:35;100402.78;;;14.11;100.00
13420;BME280;6781;58.440;15.470;2023-07-28T00:31:04;100285.13;;;13.43;100.00
13420;BME280;6781;58.440;15.470;2023-07-28T00:33:31;100368.25;;;14.17;100.00
13420;BME280;6781;58.440;15.470;2023-07-28T00:35:58;100359.16;;;14.21;100.00
13420;BME280;6781;58.440;15.470;2023-07-28T00:38:25;100345.03;;;14.06;100.00
13420;BME280;6781;58.440;15.470;2023-07-28T00:40:52;100338.00;;;14.24;100.00
13420;BME280;6781;58.440;15.470;2023-07-28T00:43:19;100342.41;;;14.24;100.00
13420;BME280;6781;58.440;15.470;2023-07-28T00:45:46;100219.47;;;13.22;100.00
13420;BME280;6781;58.440;15.470;2023-07-28T00:48:15;100323.34;;;13.88;100.00
13420;BME280;6781;58.440;15.470;2023-07-28T00:50:45;100272.19;;;13.69;100.00
13420;BME280;6781;58.440;15.470;2023-07-28T00:53:12;100363.56;;;14.21;100.00
13420;BME280;6781;58.440;15.470;2023-07-28T00:55:39;100281.13;;;13.66;100.00
13420;BME280;6781;58.440;15.470;2023-07-28T00:58:07;100227.53;;;13.46;100.00
13420;BME280;6781;58.440;15.470;2023-07-28T01:00:35;100349.09;;;14.26;100.00
13420;BME280;6781;58.440;15.470;2023-07-28T01:03:02;100278.31;;;13.78;100.00
13420;BME280;6781;58.440;15.470;2023-07-28T01:05:50;100318.56;;;14.19;100.00
13420;BME280;6781;58.440;15.470;2023-07-28T01:08:26;100311.69;;;14.18;100.00
13420;BME280;6781;58.440;15.470;2023-07-28T01:10:54;100311.19;;;14.14;100.00
13420;BME280;6781;58.440;15.470;2023-07-28T01:13:21;100261.63;;;13.71;100.00
13420;BME280;6781;58.440;15.470;2023-07-28T01:15:48;100326.00;;;14.14;100.00
13420;BME280;6781;58.440;15.470;2023-07-28T01:18:14;100354.84;;;14.12;100.00
13420;BME280;6781;58.440;15.470;2023-07-28T01:20:45;100314.25;;;14.10;100.00
13420;BME280;6781;58.440;15.470;2023-07-28T01:23:19;100190.53;;;13.25;100.00
13420;BME280;6781;58.440;15.470;2023-07-28T01:25:55;100310.88;;;14.17;100.00
13420;BME280;6781;58.440;15.470;2023-07-28T01:28:27;100333.25;;;14.20;100.00
13420;BME280;6781;58.440;15.470;2023-07-28T01:30:54;100175.44;;;13.46;100.00
13420;BME280;6781;58.440;15.470;2023-07-28T01:33:20;100284.50;;;14.20;100.00
13420;BME280;6781;58.440;15.470;2023-07-28T01:35:55;100191.72;;;13.66;100.00
13420;BME280;6781;58.440;15.470;2023-07-28T01:38:24;100166.63;;;13.47;100.00
13420;BME280;6781;58.440;15.470;2023-07-28T01:40:51;100288.56;;;13.97;100.00
13420;BME280;6781;58.440;15.470;2023-07-28T01:43:18;100218.28;;;13.34;100.00
13420;BME280;6781;58.440;15.470;2023-07-28T01:45:47;100297.03;;;13.99;100.00
13420;BME280;6781;58.440;15.470;2023-07-28T01:48:14;100260.50;;;13.73;100.00
13420;BME280;6781;58.440;15.470;2023-07-28T01:50:41;100293.72;;;13.71;100.00
13420;BME280;6781;58.440;15.470;2023-07-28T01:53:08;100307.44;;;13.73;100.00
13420;BME280;6781;58.440;15.470;2023-07-28T01:55:35;100244.13;;;13.27;100.00
13420;BME280;6781;58.440;15.470;2023-07-28T01:58:02;100273.66;;;13.36;100.00
13420;BME280;6781;58.440;15.470;2023-07-28T02:00:29;100298.13;;;13.71;100.00
13420;BME280;6781;58.440;15.470;2023-07-28T02:02:58;100078.03;;;12.41;100.00
13420;BME280;6781;58.440;15.470;2023-07-28T02:08:02;100227.81;;;13.43;100.00
13420;BME280;6781;58.440;15.470;2023-07-28T02:10:31;100101.25;;;12.52;100.00
13420;BME280;6781;58.440;15.470;2023-07-28T02:12:58;100188.91;;;12.96;100.00
13420;BME280;6781;58.440;15.470;2023-07-28T02:15:25;100283.91;;;13.65;100.00
13420;BME280;6781;58.440;15.470;2023-07-28T02:17:52;100184.47;;;13.07;100.00
13420;BME280;6781;58.440;15.470;2023-07-28T02:20:20;100286.22;;;13.68;100.00
13420;BME280;6781;58.440;15.470;2023-07-28T02:22:47;100194.63;;;13.00;100.00
13420;BME280;6781;58.440;15.470;2023-07-28T02:25:14;100317.03;;;13.73;100.00
13420;BME280;6781;58.440;15.470;2023-07-28T02:27:41;100332.38;;;13.76;100.00
13420;BME280;6781;58.440;15.470;2023-07-28T02:30:09;100354.56;;;13.80;100.00
13420;BME280;6781;58.440;15.470;2023-07-28T02:32:36;100322.03;;;13.84;100.00
13420;BME280;6781;58.440;15.470;2023-07-28T02:35:05;100261.91;;;13.32;100.00
13420;BME280;6781;58.440;15.470;2023-07-28T02:37:33;100347.28;;;13.83;100.00
13420;BME280;6781;58.440;15.470;2023-07-28T02:40:00;100193.63;;;12.83;100.00
13420;BME280;6781;58.440;15.470;2023-07-28T02:42:27;100197.13;;;12.74;100.00
13420;BME280;6781;58.440;15.470;2023-07-28T02:44:54;100375.03;;;13.92;100.00
13420;BME280;6781;58.440;15.470;2023-07-28T02:47:21;100389.56;;;13.95;100.00
13420;BME280;6781;58.440;15.470;2023-07-28T02:49:48;100370.22;;;13.80;100.00
13420;BME280;6781;58.440;15.470;2023-07-28T02:52:15;100275.31;;;13.37;100.00
13420;BME280;6781;58.440;15.470;2023-07-28T02:54:44;100258.41;;;13.23;100.00
13420;BME280;6781;58.440;15.470;2023-07-28T02:57:11;100384.06;;;13.98;100.00
13420;BME280;6781;58.440;15.470;2023-07-28T02:59:38;100259.34;;;13.22;100.00
13420;BME280;6781;58.440;15.470;2023-07-28T03:02:05;100347.44;;;13.82;100.00
13420;BME280;6781;58.440;15.470;2023-07-28T03:04:32;100373.03;;;13.68;100.00
13420;BME280;6781;58.440;15.470;2023-07-28T03:06:59;100425.09;;;13.96;100.00
13420;BME280;6781;58.440;15.470;2023-07-28T03:09:26;100288.63;;;13.34;100.00
13420;BME280;6781;58.440;15.470;2023-07-28T03:11:55;100372.00;;;13.97;100.00
13420;BME280;6781;58.440;15.470;2023-07-28T03:14:21;100357.16;;;13.97;100.00
13420;BME280;6781;58.440;15.470;2023-07-28T03:16:48;100365.00;;;13.97;100.00
13420;BME280;6781;58.440;15.470;2023-07-28T03:19:15;100373.09;;;13.94;100.00
13420;BME280;6781;58.440;15.470;2023-07-28T03:21:43;100375.34;;;13.89;100.00
13420;BME280;6781;58.440;15.470;2023-07-28T03:24:10;100394.56;;;13.88;100.00
13420;BME280;6781;58.440;15.470;2023-07-28T03:26:37;100308.13;;;12.93;100.00
13420;BME280;6781;58.440;15.470;2023-07-28T03:29:05;100435.97;;;13.74;100.00
13420;BME280;6781;58.440;15.470;2023-07-28T03:31:32;100420.81;;;13.59;100.00
13420;BME280;6781;58.440;15.470;2023-07-28T03:34:01;100466.28;;;13.75;100.00
13420;BME280;6781;58.440;15.470;2023-07-28T03:36:28;100336.31;;;12.97;100.00
13420;BME280;6781;58.440;15.470;2023-07-28T03:38:55;100469.28;;;13.80;100.00
13420;BME280;6781;58.440;15.470;2023-07-28T03:41:22;100493.13;;;13.85;100.00
13420;BME280;6781;58.440;15.470;2023-07-28T03:43:48;100408.22;;;13.55;100.00
13420;BME280;6781;58.440;15.470;2023-07-28T03:46:17;100469.19;;;13.89;100.00
13420;BME280;6781;58.440;15.470;2023-07-28T03:48:44;100464.50;;;13.93;100.00
13420;BME280;6781;58.440;15.470;2023-07-28T03:51:12;100480.16;;;13.93;100.00
13420;BME280;6781;58.440;15.470;2023-07-28T03:53:39;100340.00;;;13.04;100.00
13420;BME280;6781;58.440;15.470;2023-07-28T03:56:06;100507.06;;;13.93;100.00
13420;BME280;6781;58.440;15.470;2023-07-28T03:58:32;100522.69;;;13.93;100.00
13420;BME280;6781;58.440;15.470;2023-07-28T04:00:59;100377.53;;;13.12;100.00
13420;BME280;6781;58.440;15.470;2023-07-28T04:03:28;100518.31;;;13.94;100.00
13420;BME280;6781;58.440;15.470;2023-07-28T04:05:55;100507.59;;;13.97;100.00
13420;BME280;6781;58.440;15.470;2023-07-28T04:08:22;100472.38;;;13.65;100.00
13420;BME280;6781;58.440;15.470;2023-07-28T04:10:49;100514.34;;;13.90;100.00
13420;BME280;6781;58.440;15.470;2023-07-28T04:13:16;100576.44;;;14.04;100.00
13420;BME280;6781;58.440;15.470;2023-07-28T04:15:43;100537.44;;;13.85;100.00
13420;BME280;6781;58.440;15.470;2023-07-28T04:18:10;100463.94;;;13.44;100.00
13420;BME280;6781;58.440;15.470;2023-07-28T04:20:38;100459.94;;;13.50;100.00
13420;BME280;6781;58.440;15.470;2023-07-28T04:23:05;100586.91;;;14.31;100.00
13420;BME280;6781;58.440;15.470;2023-07-28T04:25:32;100587.56;;;14.33;100.00
13420;BME280;6781;58.440;15.470;2023-07-28T04:27:59;100583.19;;;14.34;100.00
13420;BME280;6781;58.440;15.470;2023-07-28T04:30:26;100591.38;;;14.39;100.00
13420;BME280;6781;58.440;15.470;2023-07-28T04:32:53;100466.66;;;13.52;100.00
13420;BME280;6781;58.440;15.470;2023-07-28T04:35:20;100619.41;;;14.47;100.00
13420;BME280;6781;58.440;15.470;2023-07-28T04:37:49;100646.94;;;14.59;100.00
13420;BME280;6781;58.440;15.470;2023-07-28T04:40:16;100646.22;;;14.67;100.00
13420;BME280;6781;58.440;15.470;2023-07-28T04:42:43;100599.38;;;14.38;100.00
13420;BME280;6781;58.440;15.470;2023-07-28T04:45:10;100627.81;;;14.68;100.00
13420;BME280;6781;58.440;15.470;2023-07-28T04:47:37;100426.16;;;13.58;100.00
13420;BME280;6781;58.440;15.470;2023-07-28T04:50:05;100613.94;;;14.85;100.00
13420;BME280;6781;58.440;15.470;2023-07-28T04:52:31;100602.09;;;14.91;100.00
13420;BME280;6781;58.440;15.470;2023-07-28T04:55:00;100575.28;;;14.71;100.00
13420;BME280;6781;58.440;15.470;2023-07-28T04:57:28;100605.00;;;15.06;100.00
13420;BME280;6781;58.440;15.470;2023-07-28T04:59:54;100634.19;;;15.19;100.00
13420;BME280;6781;58.440;15.470;2023-07-28T05:02:21;100503.50;;;14.40;100.00
13420;BME280;6781;58.440;15.470;2023-07-28T05:04:48;100654.91;;;15.56;100.00
13420;BME280;6781;58.440;15.470;2023-07-28T05:07:15;100640.78;;;15.67;100.00
13420;BME280;6781;58.440;15.470;2023-07-28T05:09:42;100609.09;;;15.70;100.00
13420;BME280;6781;58.440;15.470;2023-07-28T05:12:11;100501.41;;;14.96;100.00
13420;BME280;6781;58.440;15.470;2023-07-28T05:14:38;100359.00;;;14.41;100.00
13420;BME280;6781;58.440;15.470;2023-07-28T05:17:05;100529.22;;;15.49;100.00
13420;BME280;6781;58.440;15.470;2023-07-28T05:19:32;100474.19;;;14.99;100.00
13420;BME280;6781;58.440;15.470;2023-07-28T05:22:00;100385.56;;;14.54;100.00
13420;BME280;6781;58.440;15.470;2023-07-28T05:24:27;100530.66;;;15.70;100.00
13420;BME280;6781;58.440;15.470;2023-07-28T05:26:54;100368.22;;;14.71;100.00
13420;BME280;6781;58.440;15.470;2023-07-28T05:29:23;100423.28;;;15.03;100.00
13420;BME280;6781;58.440;15.470;2023-07-28T05:31:50;100534.31;;;15.85;100.00
13420;BME280;6781;58.440;15.470;2023-07-28T05:34:17;100549.75;;;15.96;100.00
13420;BME280;6781;58.440;15.470;2023-07-28T05:36:44;100420.44;;;15.56;100.00
13420;BME280;6781;58.440;15.470;2023-07-28T05:39:11;100464.69;;;15.84;100.00
13420;BME280;6781;58.440;15.470;2023-07-28T05:41:38;100447.00;;;15.78;100.00
13420;BME280;6781;58.440;15.470;2023-07-28T05:44:05;100437.84;;;15.74;100.00
13420;BME280;6781;58.440;15.470;2023-07-28T05:46:33;100426.56;;;15.81;100.00
13420;BME280;6781;58.440;15.470;2023-07-28T05:49:00;100275.81;;;14.89;100.00
13420;BME280;6781;58.440;15.470;2023-07-28T05:51:27;100179.84;;;14.23;100.00
13420;BME280;6781;58.440;15.470;2023-07-28T05:53:54;100411.34;;;15.69;100.00
13420;BME280;6781;58.440;15.470;2023-07-28T05:56:22;100312.00;;;15.18;100.00
13420;BME280;6781;58.440;15.470;2023-07-28T05:58:49;100282.09;;;15.13;100.00
13420;BME280;6781;58.440;15.470;2023-07-28T06:01:17;100353.25;;;15.41;100.00
13420;BME280;6781;58.440;15.470;2023-07-28T06:03:45;100380.94;;;15.68;100.00
13420;BME280;6781;58.440;15.470;2023-07-28T06:06:12;100320.84;;;15.25;100.00
13420;BME280;6781;58.440;15.470;2023-07-28T06:08:39;100379.56;;;15.47;100.00
13420;BME280;6781;58.440;15.470;2023-07-28T06:11:06;100401.78;;;15.51;100.00
13420;BME280;6781;58.440;15.470;2023-07-28T06:13:33;100349.09;;;15.22;100.00
13420;BME280;6781;58.440;15.470;2023-07-28T06:16:01;100270.22;;;14.84;100.00
13420;BME280;6781;58.440;15.470;2023-07-28T06:18:28;100339.94;;;15.26;100.00
13420;BME280;6781;58.440;15.470;2023-07-28T06:20:56;100355.72;;;15.50;100.00
13420;BME280;6781;58.440;15.470;2023-07-28T06:23:26;100305.81;;;15.19;100.00
13420;BME280;6781;58.440;15.470;2023-07-28T06:25:53;100276.53;;;14.74;100.00
13420;BME280;6781;58.440;15.470;2023-07-28T06:28:20;100305.84;;;14.93;100.00
13420;BME280;6781;58.440;15.470;2023-07-28T06:30:53;100317.22;;;15.18;100.00
13420;BME280;6781;58.440;15.470;2023-07-28T06:33:20;100390.75;;;15.57;100.00
13420;BME280;6781;58.440;15.470;2023-07-28T06:35:47;100384.19;;;15.61;100.00
13420;BME280;6781;58.440;15.470;2023-07-28T06:38:16;100356.63;;;15.33;100.00
13420;BME280;6781;58.440;15.470;2023-07-28T06:40:43;100413.81;;;15.78;100.00
13420;BME280;6781;58.440;15.470;2023-07-28T06:43:10;100406.66;;;15.97;100.00
13420;BME280;6781;58.440;15.470;2023-07-28T06:45:37;100462.50;;;16.30;100.00
13420;BME280;6781;58.440;15.470;2023-07-28T06:48:04;100393.44;;;16.06;100.00
13420;BME280;6781;58.440;15.470;2023-07-28T06:50:31;100463.84;;;16.50;100.00
13420;BME280;6781;58.440;15.470;2023-07-28T06:52:58;100314.38;;;15.46;100.00
13420;BME280;6781;58.440;15.470;2023-07-28T06:55:27;100442.88;;;16.42;100.00
13420;BME280;6781;58.440;15.470;2023-07-28T06:57:56;100413.75;;;16.37;100.00
13420;BME280;6781;58.440;15.470;2023-07-28T07:00:23;100367.56;;;15.79;100.00
13420;BME280;6781;58.440;15.470;2023-07-28T07:02:50;100297.41;;;15.50;100.00
13420;BME280;6781;58.440;15.470;2023-07-28T07:05:17;100256.72;;;15.55;100.00
13420;BME280;6781;58.440;15.470;2023-07-28T07:07:45;100193.97;;;15.55;100.00
13420;BME280;6781;58.440;15.470;2023-07-28T07:10:12;100251.03;;;15.68;100.00
13420;BME280;6781;58.440;15.470;2023-07-28T07:12:40;100199.53;;;15.36;100.00
13420;BME280;6781;58.440;15.470;2023-07-28T07:15:08;100272.13;;;16.07;100.00
13420;BME280;6781;58.440;15.470;2023-07-28T07:17:37;100210.00;;;15.85;100.00
13420;BME280;6781;58.440;15.470;2023-07-28T07:20:06;100163.13;;;15.59;100.00
13420;BME280;6781;58.440;15.470;2023-07-28T07:22:33;100068.53;;;15.39;100.00
13420;BME280;6781;58.440;15.470;2023-07-28T07:25:00;100203.16;;;16.55;100.00
13420;BME280;6781;58.440;15.470;2023-07-28T07:27:27;100209.81;;;17.05;100.00
13420;BME280;6781;58.440;15.470;2023-07-28T07:29:56;100143.09;;;17.16;100.00
13420;BME280;6781;58.440;15.470;2023-07-28T07:32:23;100026.56;;;17.04;100.00
13420;BME280;6781;58.440;15.470;2023-07-28T07:34:50;100068.38;;;17.72;100.00
13420;BME280;6781;58.440;15.470;2023-07-28T07:37:18;100000.97;;;17.87;100.00
13420;BME280;6781;58.440;15.470;2023-07-28T07:39:45;100001.50;;;18.34;100.00
13420;BME280;6781;58.440;15.470;2023-07-28T07:42:12;99953.56;;;17.74;100.00
13420;BME280;6781;58.440;15.470;2023-07-28T07:44:40;99943.59;;;18.20;100.00
13420;BME280;6781;58.440;15.470;2023-07-28T07:47:17;99828.31;;;17.62;100.00
13420;BME280;6781;58.440;15.470;2023-07-28T07:49:44;99880.97;;;18.17;100.00
13420;BME280;6781;58.440;15.470;2023-07-28T07:52:11;99866.84;;;18.18;100.00
13420;BME280;6781;58.440;15.470;2023-07-28T07:54:38;99818.50;;;17.85;100.00
13420;BME280;6781;58.440;15.470;2023-07-28T07:57:06;99731.03;;;17.56;100.00
13420;BME280;6781;58.440;15.470;2023-07-28T07:59:33;99820.72;;;18.09;100.00
13420;BME280;6781;58.440;15.470;2023-07-28T08:02:00;99863.72;;;18.30;100.00
13420;BME280;6781;58.440;15.470;2023-07-28T08:04:30;99820.25;;;17.99;100.00
13420;BME280;6781;58.440;15.470;2023-07-28T08:06:57;99778.88;;;18.01;100.00
13420;BME280;6781;58.440;15.470;2023-07-28T08:09:24;99770.16;;;17.73;100.00
13420;BME280;6781;58.440;15.470;2023-07-28T08:11:52;99609.09;;;16.97;100.00
13420;BME280;6781;58.440;15.470;2023-07-28T08:14:19;99590.38;;;16.78;100.00
13420;BME280;6781;58.440;15.470;2023-07-28T08:16:46;99781.47;;;18.23;100.00
13420;BME280;6781;58.440;15.470;2023-07-28T08:19:13;99776.19;;;17.95;100.00
13420;BME280;6781;58.440;15.470;2023-07-28T08:21:42;99701.44;;;17.63;100.00
13420;BME280;6781;58.440;15.470;2023-07-28T08:24:09;99785.38;;;18.33;100.00
13420;BME280;6781;58.440;15.470;2023-07-28T08:26:37;99726.53;;;17.50;100.00
13420;BME280;6781;58.440;15.470;2023-07-28T08:29:04;99743.94;;;17.58;100.00
13420;BME280;6781;58.440;15.470;2023-07-28T08:31:31;99822.69;;;18.01;100.00
13420;BME280;6781;58.440;15.470;2023-07-28T08:33:58;99828.34;;;18.04;100.00
13420;BME280;6781;58.440;15.470;2023-07-28T08:36:25;99716.91;;;17.15;100.00
13420;BME280;6781;58.440;15.470;2023-07-28T08:38:53;99731.28;;;17.83;100.00
13420;BME280;6781;58.440;15.470;2023-07-28T08:41:21;99800.34;;;18.61;100.00
13420;BME280;6781;58.440;15.470;2023-07-28T08:43:48;99747.00;;;18.04;100.00
13420;BME280;6781;58.440;15.470;2023-07-28T08:46:16;99608.28;;;16.96;100.00
13420;BME280;6781;58.440;15.470;2023-07-28T08:48:43;99781.09;;;18.26;100.00
13420;BME280;6781;58.440;15.470;2023-07-28T08:51:12;99561.97;;;16.60;100.00
13420;BME280;6781;58.440;15.470;2023-07-28T08:53:40;99779.13;;;18.06;100.00
13420;BME280;6781;58.440;15.470;2023-07-28T09:05:25;99684.28;;;18.92;100.00
13420;BME280;6781;58.440;15.470;2023-07-28T09:07:56;99699.56;;;18.68;100.00
13420;BME280;6781;58.440;15.470;2023-07-28T09:10:24;99705.50;;;18.49;100.00
13420;BME280;6781;58.440;15.470;2023-07-28T09:12:54;99644.06;;;18.98;100.00
13420;BME280;6781;58.440;15.470;2023-07-28T09:15:59;99637.84;;;19.65;100.00
13420;BME280;6781;58.440;15.470;2023-07-28T09:18:40;99630.53;;;19.14;100.00
13420;BME280;6781;58.440;15.470;2023-07-28T09:21:42;99584.72;;;18.56;100.00
13420;BME280;6781;58.440;15.470;2023-07-28T10:22:12;99615.19;;;20.86;100.00
13420;BME280;6781;58.440;15.470;2023-07-28T10:24:50;99511.88;;;21.46;100.00
13420;BME280;6781;58.440;15.470;2023-07-28T10:27:28;99612.78;;;22.27;100.00
13420;BME280;6781;58.440;15.470;2023-07-28T10:29:56;99530.16;;;21.84;100.00
13420;BME280;6781;58.440;15.470;2023-07-28T10:32:26;99509.06;;;21.22;100.00
13420;BME280;6781;58.440;15.470;2023-07-28T10:35:00;99563.59;;;21.90;100.00
13420;BME280;6781;58.440;15.470;2023-07-28T10:37:29;99446.13;;;21.26;100.00
13420;BME280;6781;58.440;15.470;2023-07-28T10:40:22;99582.69;;;21.49;100.00
13420;BME280;6781;58.440;15.470;2023-07-28T10:42:51;99526.13;;;21.63;100.00
13420;BME280;6781;58.440;15.470;2023-07-28T10:45:18;99579.44;;;21.90;100.00
13420;BME280;6781;58.440;15.470;2023-07-28T10:47:46;99504.69;;;21.34;100.00
13420;BME280;6781;58.440;15.470;2023-07-28T10:50:13;99591.41;;;21.49;100.00
13420;BME280;6781;58.440;15.470;2023-07-28T10:52:43;99516.78;;;21.42;100.00
13420;BME280;6781;58.440;15.470;2023-07-28T10:55:13;99460.81;;;21.15;100.00
13420;BME280;6781;58.440;15.470;2023-07-28T10:57:41;99622.44;;;21.97;100.00
13420;BME280;6781;58.440;15.470;2023-07-28T11:00:09;99602.78;;;21.50;100.00
13420;BME280;6781;58.440;15.470;2023-07-28T11:02:42;99428.22;;;20.35;100.00
13420;BME280;6781;58.440;15.470;2023-07-28T11:05:11;99522.50;;;20.64;100.00
13420;BME280;6781;58.440;15.470;2023-07-28T11:07:42;99555.19;;;20.82;100.00
13420;BME280;6781;58.440;15.470;2023-07-28T11:10:10;99478.00;;;20.50;100.00
13420;BME280;6781;58.440;15.470;2023-07-28T11:12:42;99526.16;;;21.13;100.00
13420;BME280;6781;58.440;15.470;2023-07-28T11:15:11;99496.47;;;20.74;100.00
13420;BME280;6781;58.440;15.470;2023-07-28T11:17:38;99483.34;;;20.30;100.00
13420;BME280;6781;58.440;15.470;2023-07-28T11:20:17;99452.28;;;19.62;100.00
13420;BME280;6781;58.440;15.470;2023-07-28T11:22:51;99547.84;;;20.14;100.00
13420;BME280;6781;58.440;15.470;2023-07-28T11:25:19;99555.25;;;20.37;100.00
13420;BME280;6781;58.440;15.470;2023-07-28T11:27:48;99625.88;;;21.29;100.00
13420;BME280;6781;58.440;15.470;2023-07-28T11:30:16;99485.84;;;20.56;100.00
13420;BME280;6781;58.440;15.470;2023-07-28T11:32:45;99399.44;;;19.64;100.00
13420;BME280;6781;58.440;15.470;2023-07-28T11:35:14;99411.78;;;19.05;100.00
13420;BME280;6781;58.440;15.470;2023-07-28T11:37:45;99543.84;;;19.98;100.00
13420;BME280;6781;58.440;15.470;2023-07-28T11:40:15;99627.56;;;21.17;100.00
13420;BME280;6781;58.440;15.470;2023-07-28T11:42:45;99488.69;;;19.72;100.00
13420;BME280;6781;58.440;15.470;2023-07-28T11:45:13;99621.78;;;20.70;100.00
13420;BME280;6781;58.440;15.470;2023-07-28T11:47:52;99538.00;;;20.48;100.00
13420;BME280;6781;58.440;15.470;2023-07-28T11:50:25;99417.13;;;19.95;100.00
13420;BME280;6781;58.440;15.470;2023-07-28T11:52:52;99602.56;;;20.95;100.00
13420;BME280;6781;58.440;15.470;2023-07-28T11:55:23;99407.94;;;19.66;100.00
13420;BME280;6781;58.440;15.470;2023-07-28T11:57:51;99564.66;;;20.64;100.00
13420;BME280;6781;58.440;15.470;2023-07-28T12:00:29;99645.84;;;21.12;100.00
13420;BME280;6781;58.440;15.470;2023-07-28T12:03:04;99543.44;;;20.01;100.00
13420;BME280;6781;58.440;15.470;2023-07-28T12:05:32;99509.25;;;20.96;100.00
13420;BME280;6781;58.440;15.470;2023-07-28T12:08:02;99405.69;;;20.70;100.00
13420;BME280;6781;58.440;15.470;2023-07-28T12:10:32;99427.53;;;20.14;100.00
13420;BME280;6781;58.440;15.470;2023-07-28T12:13:04;99647.66;;;21.50;100.00
13420;BME280;6781;58.440;15.470;2023-07-28T12:15:32;99430.41;;;20.06;100.00
13420;BME280;6781;58.440;15.470;2023-07-28T12:18:05;99436.97;;;21.03;100.00
13420;BME280;6781;58.440;15.470;2023-07-28T12:20:37;99489.28;;;21.06;100.00
13420;BME280;6781;58.440;15.470;2023-07-28T12:23:12;99531.25;;;21.58;100.00
13420;BME280;6781;58.440;15.470;2023-07-28T12:25:43;99669.34;;;21.20;100.00
13420;BME280;6781;58.440;15.470;2023-07-28T12:28:12;99645.34;;;20.97;100.00
13420;BME280;6781;58.440;15.470;2023-07-28T12:30:39;99533.28;;;20.56;100.00
13420;BME280;6781;58.440;15.470;2023-07-28T12:33:06;99476.13;;;20.19;100.00
13420;BME280;6781;58.440;15.470;2023-07-28T12:35:35;99594.00;;;20.99;100.00
13420;BME280;6781;58.440;15.470;2023-07-28T12:38:03;99466.25;;;19.63;100.00
13420;BME280;6781;58.440;15.470;2023-07-28T12:40:31;99472.50;;;19.68;100.00
13420;BME280;6781;58.440;15.470;2023-07-28T12:43:01;99476.75;;;19.63;100.00
13420;BME280;6781;58.440;15.470;2023-07-28T12:45:29;99717.97;;;21.37;100.00
13420;BME280;6781;58.440;15.470;2023-07-28T12:47:56;99485.25;;;19.65;100.00
13420;BME280;6781;58.440;15.470;2023-07-28T12:50:26;99548.03;;;20.64;100.00
13420;BME280;6781;58.440;15.470;2023-07-28T12:52:53;99598.44;;;21.05;100.00
13420;BME280;6781;58.440;15.470;2023-07-28T12:55:22;99697.34;;;21.21;100.00
13420;BME280;6781;58.440;15.470;2023-07-28T12:58:01;99598.72;;;20.01;100.00
13420;BME280;6781;58.440;15.470;2023-07-28T13:00:28;99649.44;;;20.55;100.00
13420;BME280;6781;58.440;15.470;2023-07-28T13:02:55;99636.56;;;20.78;100.00
13420;BME280;6781;58.440;15.470;2023-07-28T13:05:23;99639.34;;;20.45;100.00
13420;BME280;6781;58.440;15.470;2023-07-28T13:07:51;99467.84;;;19.70;100.00
13420;BME280;6781;58.440;15.470;2023-07-28T13:10:19;99522.38;;;20.01;100.00
13420;BME280;6781;58.440;15.470;2023-07-28T13:12:46;99484.94;;;19.15;100.00
13420;BME280;6781;58.440;15.470;2023-07-28T13:15:22;99535.41;;;18.51;100.00
13420;BME280;6781;58.440;15.470;2023-07-28T13:17:50;99556.69;;;18.69;100.00
13420;BME280;6781;58.440;15.470;2023-07-28T13:20:22;99713.56;;;19.76;100.00
13420;BME280;6781;58.440;15.470;2023-07-28T13:23:00;99509.75;;;17.57;100.00
13420;BME280;6781;58.440;15.470;2023-07-28T13:25:27;99712.63;;;19.16;100.00
13420;BME280;6781;58.440;15.470;2023-07-28T13:28:00;99622.38;;;18.69;100.00
13420;BME280;6781;58.440;15.470;2023-07-28T13:30:30;99577.31;;;18.25;100.00
13420;BME280;6781;58.440;15.470;2023-07-28T13:32:57;99544.41;;;17.81;100.00
13420;BME280;6781;58.440;15.470;2023-07-28T13:35:24;99650.38;;;18.14;100.00
13420;BME280;6781;58.440;15.470;2023-07-28T13:37:51;99653.31;;;18.74;100.00
13420;BME280;6781;58.440;15.470;2023-07-28T13:40:18;99570.88;;;18.27;100.00
13420;BME280;6781;58.440;15.470;2023-07-28T13:42:59;99740.06;;;19.61;100.00
13420;BME280;6781;58.440;15.470;2023-07-28T13:45:26;99622.84;;;19.32;100.00
13420;BME280;6781;58.440;15.470;2023-07-28T13:47:55;99644.59;;;18.67;100.00
13420;BME280;6781;58.440;15.470;2023-07-28T13:50:26;99663.22;;;17.75;100.00
13420;BME280;6781;58.440;15.470;2023-07-28T13:52:52;99602.91;;;17.26;100.00
13420;BME280;6781;58.440;15.470;2023-07-28T13:55:19;99554.59;;;16.85;100.00
13420;BME280;6781;58.440;15.470;2023-07-28T13:57:46;99661.38;;;17.26;100.00
13420;BME280;6781;58.440;15.470;2023-07-28T14:00:14;99588.53;;;16.94;100.00